createdAt,value
2018-01-26T00:02:08.788Z,64.00
2018-01-26T00:04:37.010Z,64.10
2018-01-26T00:07:05.223Z,64.10
2018-01-26T00:09:32.682Z,64.00
2018-01-26T00:12:00.143Z,64.10
2018-01-26T00:14:28.365Z,64.10
2018-01-26T00:16:55.809Z,64.00
2018-01-26T00:19:23.276Z,64.00
2018-01-26T00:21:50.721Z,64.00
2018-01-26T00:24:18.176Z,64.00
2018-01-26T00:26:45.653Z,64.00
2018-01-26T00:29:13.114Z,64.00
2018-01-26T00:31:41.334Z,64.10
2018-01-26T00:34:08.791Z,64.10
2018-01-26T00:36:36.249Z,64.20
2018-01-26T00:39:03.723Z,64.10
2018-01-26T00:41:31.182Z,64.00
2018-01-26T00:44:01.522Z,64.20
2018-01-26T00:46:28.992Z,64.20
2018-01-26T00:48:56.455Z,64.20
2018-01-26T00:51:23.917Z,64.10
2018-01-26T00:53:51.367Z,64.00
2018-01-26T00:56:18.819Z,64.00
2018-01-26T00:58:46.289Z,64.10
2018-01-26T01:01:14.533Z,64.30
2018-01-26T01:03:41.986Z,64.30
2018-01-26T01:06:09.456Z,64.20
2018-01-26T01:08:36.898Z,64.20
2018-01-26T01:11:04.373Z,64.20
2018-01-26T01:13:31.827Z,64.20
2018-01-26T01:15:59.280Z,64.20
2018-01-26T01:18:26.783Z,64.00
2018-01-26T01:20:54.241Z,64.10
2018-01-26T01:23:21.684Z,64.10
2018-01-26T01:25:49.905Z,64.20
2018-01-26T01:28:17.359Z,64.20
2018-01-26T01:30:44.813Z,64.20
2018-01-26T01:33:12.320Z,64.00
2018-01-26T01:35:40.078Z,64.10
2018-01-26T01:38:07.534Z,64.00
2018-01-26T01:40:34.980Z,64.10
2018-01-26T01:43:02.443Z,64.30
2018-01-26T01:45:29.902Z,64.20
2018-01-26T01:47:57.358Z,64.00
2018-01-26T01:50:24.825Z,64.10
2018-01-26T01:52:52.293Z,64.00
2018-01-26T01:55:19.738Z,64.10
2018-01-26T01:57:47.205Z,64.10
2018-01-26T02:00:15.429Z,64.10
2018-01-26T02:02:42.889Z,64.10
2018-01-26T02:05:10.364Z,64.00
2018-01-26T02:07:37.812Z,64.10
2018-01-26T02:10:05.269Z,64.00
2018-01-26T02:12:32.729Z,64.10
2018-01-26T02:15:00.178Z,64.00
2018-01-26T02:17:27.632Z,64.00
2018-01-26T02:19:55.081Z,64.10
2018-01-26T02:22:22.557Z,64.20
2018-01-26T02:25:07.383Z,64.20
2018-01-26T02:27:35.617Z,64.20
2018-01-26T02:30:03.083Z,64.20
2018-01-26T02:32:30.533Z,64.20
2018-01-26T02:34:57.981Z,64.20
2018-01-26T02:37:25.429Z,64.20
2018-01-26T02:39:52.898Z,64.10
2018-01-26T02:42:20.369Z,64.10
2018-01-26T02:44:47.816Z,64.20
2018-01-26T02:47:15.297Z,64.10
2018-01-26T02:49:42.740Z,64.20
2018-01-26T02:52:10.197Z,64.20
2018-01-26T02:54:37.657Z,64.00
2018-01-26T02:57:05.873Z,64.10
2018-01-26T02:59:36.061Z,64.00
2018-01-26T03:02:03.510Z,64.10
2018-01-26T03:04:31.751Z,64.10
2018-01-26T03:06:59.205Z,64.00
2018-01-26T03:09:26.664Z,64.10
2018-01-26T03:11:54.144Z,64.20
2018-01-26T03:14:21.613Z,64.20
2018-01-26T03:16:49.064Z,64.10
2018-01-26T03:19:16.542Z,64.10
2018-01-26T03:21:44.756Z,64.10
2018-01-26T03:24:12.222Z,63.90
2018-01-26T03:26:39.693Z,64.00
2018-01-26T03:29:07.149Z,64.10
2018-01-26T03:31:34.610Z,64.00
2018-01-26T03:34:02.073Z,64.10
2018-01-26T03:36:29.540Z,64.10
2018-01-26T03:38:56.988Z,64.10
2018-01-26T03:41:24.449Z,64.10
2018-01-26T03:43:51.906Z,64.00
2018-01-26T03:46:19.360Z,64.10
2018-01-26T03:48:46.816Z,64.30
2018-01-26T03:51:14.980Z,64.20
2018-01-26T03:53:42.425Z,64.20
2018-01-26T03:56:09.885Z,64.30
2018-01-26T03:58:37.362Z,64.20
2018-01-26T04:01:04.833Z,64.30
2018-01-26T04:03:32.277Z,64.20
2018-01-26T04:05:59.750Z,64.10
2018-01-26T04:08:27.220Z,64.30
2018-01-26T04:10:54.665Z,64.10
2018-01-26T04:13:22.140Z,64.20
2018-01-26T04:15:50.360Z,64.30
2018-01-26T04:18:17.812Z,64.30
2018-01-26T04:20:45.314Z,64.30
2018-01-26T04:23:12.776Z,64.30
2018-01-26T04:25:40.229Z,64.30
2018-01-26T04:28:08.460Z,64.30
2018-01-26T04:30:35.920Z,64.30
2018-01-26T04:33:03.376Z,64.30
2018-01-26T04:35:30.832Z,64.20
2018-01-26T04:37:58.298Z,64.20
2018-01-26T04:40:25.748Z,64.20
2018-01-26T04:42:53.213Z,64.20
2018-01-26T04:45:20.665Z,64.30
2018-01-26T04:47:48.352Z,64.30
2018-01-26T04:50:15.793Z,64.20
2018-01-26T04:52:43.253Z,64.20
2018-01-26T04:55:10.720Z,64.30
2018-01-26T04:57:38.185Z,64.30
2018-01-26T05:00:05.638Z,64.40
2018-01-26T05:02:33.097Z,64.40
2018-01-26T05:05:00.556Z,64.30
2018-01-26T05:07:28.001Z,64.30
2018-01-26T05:09:55.452Z,64.40
2018-01-26T05:12:22.904Z,64.30
2018-01-26T05:14:50.365Z,64.30
2018-01-26T05:17:17.820Z,64.20
2018-01-26T05:19:45.291Z,64.30
2018-01-26T05:22:12.740Z,64.30
2018-01-26T05:24:40.210Z,64.40
2018-01-26T05:27:07.652Z,64.10
2018-01-26T05:29:35.132Z,64.30
2018-01-26T05:32:02.583Z,64.30
2018-01-26T05:34:30.042Z,64.40
2018-01-26T05:36:57.501Z,64.20
2018-01-26T05:39:24.989Z,64.20
2018-01-26T05:41:53.208Z,64.40
2018-01-26T05:44:20.664Z,64.30
2018-01-26T05:46:48.122Z,64.40
2018-01-26T05:49:15.588Z,64.40
2018-01-26T05:51:43.055Z,64.40
2018-01-26T05:54:10.513Z,64.30
2018-01-26T05:56:37.985Z,64.30
2018-01-26T05:59:06.249Z,64.30
2018-01-26T06:01:33.688Z,64.20
2018-01-26T06:04:01.139Z,64.20
2018-01-26T06:06:28.602Z,64.10
2018-01-26T06:08:56.057Z,64.20
2018-01-26T06:11:23.523Z,64.10
2018-01-26T06:13:50.969Z,64.10
2018-01-26T06:16:18.433Z,64.20
2018-01-26T06:18:45.894Z,64.20
2018-01-26T06:21:13.376Z,64.20
2018-01-26T06:23:40.873Z,64.20
2018-01-26T06:26:09.110Z,64.30
2018-01-26T06:28:36.553Z,64.20
2018-01-26T06:31:04.021Z,64.40
2018-01-26T06:33:32.248Z,64.40
2018-01-26T06:35:59.706Z,64.30
2018-01-26T06:38:27.161Z,64.30
2018-01-26T06:40:55.385Z,64.20
2018-01-26T06:43:22.834Z,64.30
2018-01-26T06:45:50.297Z,64.30
2018-01-26T06:48:17.761Z,64.40
2018-01-26T06:50:45.211Z,64.40
2018-01-26T06:53:12.667Z,64.40
2018-01-26T06:55:40.119Z,64.20
2018-01-26T06:58:07.594Z,64.40
2018-01-26T07:00:36.460Z,64.20
2018-01-26T07:03:03.916Z,64.10
2018-01-26T07:05:31.377Z,64.20
2018-01-26T07:07:58.829Z,64.40
2018-01-26T07:10:26.297Z,64.30
2018-01-26T07:12:53.750Z,64.30
2018-01-26T07:15:21.219Z,64.20
2018-01-26T07:17:48.681Z,64.30
2018-01-26T07:20:16.243Z,64.20
2018-01-26T07:22:44.533Z,64.30
2018-01-26T07:25:12.003Z,64.30
2018-01-26T07:27:39.470Z,64.20
2018-01-26T07:30:07.721Z,64.40
2018-01-26T07:32:35.230Z,64.30
2018-01-26T07:35:03.476Z,64.30
2018-01-26T07:37:30.924Z,64.30
2018-01-26T07:39:58.392Z,64.30
2018-01-26T07:42:25.914Z,64.20
2018-01-26T07:44:53.370Z,64.20
2018-01-26T07:47:20.864Z,64.10
2018-01-26T07:49:49.125Z,64.20
2018-01-26T07:52:16.624Z,64.10
2018-01-26T07:54:44.124Z,63.90
2018-01-26T07:57:11.569Z,64.00
2018-01-26T07:59:39.024Z,63.90
2018-01-26T08:02:06.503Z,64.00
2018-01-26T08:04:34.809Z,63.90
2018-01-26T08:07:02.226Z,63.90
2018-01-26T08:09:29.711Z,64.00
2018-01-26T08:11:57.190Z,63.90
2018-01-26T08:14:25.424Z,64.00
2018-01-26T08:16:52.889Z,64.00
2018-01-26T08:19:20.349Z,64.10
2018-01-26T08:21:47.817Z,64.10
2018-01-26T08:24:15.282Z,64.00
2018-01-26T08:26:43.514Z,64.00
2018-01-26T08:29:10.970Z,64.00
2018-01-26T08:31:38.416Z,63.90
2018-01-26T08:34:05.878Z,64.00
2018-01-26T08:36:33.330Z,64.00
2018-01-26T08:39:00.793Z,63.80
2018-01-26T08:41:28.267Z,64.00
2018-01-26T08:43:56.487Z,63.90
2018-01-26T08:46:24.006Z,63.80
2018-01-26T08:48:52.217Z,64.00
2018-01-26T08:51:20.485Z,63.90
2018-01-26T08:53:47.930Z,63.80
2018-01-26T08:56:15.397Z,63.90
2018-01-26T08:58:42.838Z,63.90
2018-01-26T09:01:10.308Z,63.90
2018-01-26T09:03:37.749Z,63.90
2018-01-26T09:06:05.258Z,64.00
2018-01-26T09:08:32.652Z,63.90
2018-01-26T09:11:00.125Z,63.90
2018-01-26T09:13:27.578Z,63.90
2018-01-26T09:15:55.028Z,63.90
2018-01-26T09:18:22.485Z,63.70
2018-01-26T09:20:49.946Z,63.80
2018-01-26T09:23:17.384Z,63.80
2018-01-26T09:25:44.849Z,63.70
2018-01-26T09:28:12.346Z,63.70
2018-01-26T09:30:40.565Z,63.50
2018-01-26T09:33:08.040Z,63.50
2018-01-26T09:35:35.506Z,63.40
2018-01-26T09:38:02.949Z,63.30
2018-01-26T09:40:30.398Z,63.60
2018-01-26T09:42:57.861Z,63.40
2018-01-26T09:45:25.320Z,63.50
2018-01-26T09:47:52.772Z,63.30
2018-01-26T09:50:20.224Z,64.10
2018-01-26T09:52:47.683Z,63.50
2018-01-26T09:55:15.147Z,63.40
2018-01-26T09:57:42.601Z,63.30
2018-01-26T10:00:10.085Z,63.40
2018-01-26T10:02:37.513Z,63.30
2018-01-26T10:05:05.017Z,63.30
2018-01-26T10:07:32.479Z,63.40
2018-01-26T10:09:59.953Z,63.30
2018-01-26T10:12:28.196Z,63.50
2018-01-26T10:14:55.648Z,63.50
2018-01-26T10:17:23.104Z,63.50
2018-01-26T10:19:50.548Z,63.50
2018-01-26T10:22:18.014Z,63.50
2018-01-26T10:24:45.469Z,63.50
2018-01-26T10:27:12.925Z,63.40
2018-01-26T10:29:40.380Z,63.20
2018-01-26T10:32:08.697Z,63.10
2018-01-26T10:34:36.157Z,63.10
2018-01-26T10:37:04.389Z,63.10
2018-01-26T10:39:31.849Z,63.10
2018-01-26T10:41:59.298Z,63.00
2018-01-26T10:44:26.803Z,63.10
2018-01-26T10:46:55.024Z,63.20
2018-01-26T10:49:22.501Z,63.20
2018-01-26T10:51:49.998Z,63.00
2018-01-26T10:54:17.503Z,63.10
2018-01-26T10:56:44.977Z,63.00
2018-01-26T10:59:12.446Z,62.90
2018-01-26T11:01:39.906Z,63.10
2018-01-26T11:04:07.360Z,63.30
2018-01-26T11:06:35.589Z,63.30
2018-01-26T11:09:03.058Z,63.30
2018-01-26T11:11:30.509Z,63.10
2018-01-26T11:13:57.976Z,63.00
2018-01-26T11:16:25.502Z,63.00
2018-01-26T11:18:52.960Z,63.00
2018-01-26T11:21:20.412Z,62.90
2018-01-26T11:23:48.631Z,63.00
2018-01-26T11:26:16.133Z,62.90
2018-01-26T11:28:44.383Z,62.90
2018-01-26T11:31:11.936Z,63.00
2018-01-26T11:33:39.384Z,63.10
2018-01-26T11:36:06.837Z,63.00
2018-01-26T11:38:34.293Z,62.90
2018-01-26T11:41:01.782Z,63.00
2018-01-26T11:43:29.249Z,62.70
2018-01-26T11:45:57.499Z,62.50
2018-01-26T11:48:24.976Z,62.50
2018-01-26T11:50:52.806Z,62.70
2018-01-26T11:53:20.293Z,62.80
2018-01-26T11:55:47.837Z,62.70
2018-01-26T11:58:15.364Z,62.50
2018-01-26T12:00:42.881Z,62.50
2018-01-26T12:03:10.377Z,62.60
2018-01-26T12:05:38.614Z,62.60
2018-01-26T12:08:06.066Z,62.60
2018-01-26T12:10:33.541Z,62.60
2018-01-26T12:13:01.757Z,62.50
2018-01-26T12:15:29.229Z,62.50
2018-01-26T12:17:56.685Z,62.60
2018-01-26T12:20:24.134Z,62.50
2018-01-26T12:22:51.645Z,62.60
2018-01-26T12:25:19.856Z,62.80
2018-01-26T12:27:48.118Z,62.80
2018-01-26T12:30:15.568Z,62.80
2018-01-26T12:32:43.025Z,62.80
2018-01-26T12:35:11.258Z,62.70
2018-01-26T12:37:38.726Z,62.70
2018-01-26T12:40:07.676Z,62.50
2018-01-26T12:42:35.146Z,62.50
2018-01-26T12:45:02.668Z,62.60
2018-01-26T12:47:30.075Z,62.50
2018-01-26T12:49:57.517Z,62.60
2018-01-26T12:52:24.989Z,62.70
2018-01-26T12:54:52.462Z,62.60
2018-01-26T12:57:20.807Z,62.60
2018-01-26T12:59:48.300Z,62.60
2018-01-26T13:02:15.751Z,62.60
2018-01-26T13:04:43.222Z,62.80
2018-01-26T13:07:10.690Z,62.80
2018-01-26T13:09:38.193Z,62.70
2018-01-26T13:12:05.764Z,62.60
2018-01-26T13:14:33.201Z,62.60
2018-01-26T13:17:00.672Z,62.60
2018-01-26T13:19:28.181Z,62.60
2018-01-26T13:21:56.405Z,62.50
2018-01-26T13:24:23.865Z,62.50
2018-01-26T13:26:51.314Z,62.40
2018-01-26T13:29:18.779Z,62.50
2018-01-26T13:31:46.236Z,62.50
2018-01-26T13:34:13.684Z,62.60
2018-01-26T13:36:41.139Z,62.60
2018-01-26T13:39:08.609Z,62.60
2018-01-26T13:41:36.054Z,62.50
2018-01-26T13:44:03.516Z,62.70
2018-01-26T13:46:30.969Z,63.50
2018-01-26T13:48:58.444Z,62.70
2018-01-26T13:51:26.717Z,62.80
2018-01-26T13:53:54.185Z,62.80
2018-01-26T13:56:21.644Z,62.70
2018-01-26T13:58:49.100Z,62.70
2018-01-26T14:01:17.808Z,63.00
2018-01-26T14:03:45.445Z,63.00
2018-01-26T14:06:12.907Z,63.00
2018-01-26T14:08:40.356Z,63.00
2018-01-26T14:11:07.824Z,63.00
2018-01-26T14:13:36.058Z,62.90
2018-01-26T14:16:03.496Z,62.80
2018-01-26T14:18:31.712Z,63.00
2018-01-26T14:20:59.173Z,62.90
2018-01-26T14:23:26.626Z,63.00
2018-01-26T14:25:54.081Z,63.00
2018-01-26T14:28:21.552Z,63.00
2018-01-26T14:30:49.770Z,63.00
2018-01-26T14:33:17.989Z,63.00
2018-01-26T14:35:45.445Z,62.90
2018-01-26T14:38:12.904Z,62.90
2018-01-26T14:40:40.362Z,63.00
2018-01-26T14:43:07.844Z,63.00
2018-01-26T14:45:35.297Z,62.90
2018-01-26T14:48:02.758Z,62.90
2018-01-26T14:50:30.216Z,62.90
2018-01-26T14:52:57.680Z,62.90
2018-01-26T14:55:25.896Z,63.20
2018-01-26T14:57:53.356Z,63.20
2018-01-26T15:00:20.809Z,63.00
2018-01-26T15:02:48.287Z,63.00
2018-01-26T15:05:15.755Z,63.10
2018-01-26T15:07:43.201Z,63.10
2018-01-26T15:10:10.665Z,63.20
2018-01-26T15:12:38.118Z,63.80
2018-01-26T15:15:05.570Z,63.10
2018-01-26T15:17:33.048Z,63.10
2018-01-26T15:20:00.497Z,63.20
2018-01-26T15:22:27.969Z,63.20
2018-01-26T15:24:55.422Z,63.10
2018-01-26T15:27:22.879Z,63.00
2018-01-26T15:29:50.370Z,63.20
2018-01-26T15:32:17.882Z,63.20
2018-01-26T15:34:45.338Z,63.20
2018-01-26T15:37:12.817Z,63.40
2018-01-26T15:39:40.269Z,63.30
2018-01-26T15:42:07.725Z,63.30
2018-01-26T15:44:35.190Z,63.20
2018-01-26T15:47:02.692Z,63.30
2018-01-26T15:49:30.933Z,63.20
2018-01-26T15:51:58.396Z,63.20
2018-01-26T15:54:25.901Z,63.30
2018-01-26T15:56:53.369Z,63.40
2018-01-26T15:59:20.825Z,63.40
2018-01-26T16:01:48.277Z,63.50
2018-01-26T16:04:15.734Z,63.50
2018-01-26T16:06:43.202Z,63.40
2018-01-26T16:09:10.657Z,63.40
2018-01-26T16:11:38.126Z,63.50
2018-01-26T16:14:05.585Z,63.30
2018-01-26T16:16:33.057Z,63.30
2018-01-26T16:19:00.519Z,63.40
2018-01-26T16:21:27.972Z,63.40
2018-01-26T16:23:55.438Z,63.40
2018-01-26T16:26:22.889Z,64.20
2018-01-26T16:28:51.111Z,63.40
2018-01-26T16:31:18.591Z,63.40
2018-01-26T16:33:46.058Z,63.60
2018-01-26T16:36:13.492Z,63.60
2018-01-26T16:38:41.185Z,63.60
2018-01-26T16:41:08.664Z,63.40
2018-01-26T16:43:36.123Z,63.40
2018-01-26T16:46:03.577Z,63.60
2018-01-26T16:48:31.044Z,63.60
2018-01-26T16:50:58.493Z,63.70
2018-01-26T16:53:25.949Z,63.60
2018-01-26T16:55:53.405Z,63.60
2018-01-26T16:58:20.853Z,63.60
2018-01-26T17:00:48.329Z,63.60
2018-01-26T17:03:15.785Z,63.40
2018-01-26T17:05:43.242Z,63.40
2018-01-26T17:08:10.694Z,63.40
2018-01-26T17:10:38.172Z,63.30
2018-01-26T17:13:05.618Z,63.30
2018-01-26T17:15:33.073Z,63.30
2018-01-26T17:18:00.529Z,63.40
2018-01-26T17:20:27.984Z,63.40
2018-01-26T17:22:55.453Z,63.60
2018-01-26T17:25:22.901Z,63.40
2018-01-26T17:27:50.356Z,63.40
2018-01-26T17:30:17.824Z,63.50
2018-01-26T17:32:47.908Z,63.60
2018-01-26T17:35:15.397Z,63.50
2018-01-26T17:37:42.849Z,63.40
2018-01-26T17:40:10.308Z,63.40
2018-01-26T17:42:39.273Z,63.40
2018-01-26T17:45:06.728Z,63.40
2018-01-26T17:47:34.933Z,63.50
2018-01-26T17:50:02.402Z,63.40
2018-01-26T17:52:29.854Z,63.50
2018-01-26T17:54:57.332Z,63.40
2018-01-26T17:57:25.545Z,63.60
2018-01-26T17:59:53.006Z,63.40
2018-01-26T18:02:20.469Z,63.40
2018-01-26T18:04:47.926Z,63.50
2018-01-26T18:07:15.403Z,63.40
2018-01-26T18:09:42.867Z,63.40
2018-01-26T18:12:10.364Z,63.60
2018-01-26T18:14:37.825Z,63.60
2018-01-26T18:17:05.300Z,63.50
2018-01-26T18:19:32.772Z,63.40
2018-01-26T18:22:00.233Z,63.50
2018-01-26T18:24:27.677Z,63.40
2018-01-26T18:26:55.133Z,63.50
2018-01-26T18:29:22.585Z,63.50
2018-01-26T18:31:50.043Z,63.60
2018-01-26T18:34:17.529Z,63.50
2018-01-26T18:36:45.007Z,63.50
2018-01-26T18:39:12.468Z,63.50
2018-01-26T18:41:40.701Z,63.50
2018-01-26T18:44:08.914Z,63.60
2018-01-26T18:46:36.381Z,63.60
2018-01-26T18:49:04.602Z,63.60
2018-01-26T18:51:32.053Z,63.50
2018-01-26T18:53:59.512Z,63.50
2018-01-26T18:56:26.963Z,63.50
2018-01-26T18:58:54.445Z,63.70
2018-01-26T19:01:21.901Z,63.60
2018-01-26T19:03:49.362Z,63.50
2018-01-26T19:06:16.817Z,63.70
2018-01-26T19:08:44.268Z,63.60
2018-01-26T19:11:11.735Z,63.50
2018-01-26T19:13:39.189Z,63.50
2018-01-26T19:16:06.645Z,63.50
2018-01-26T19:18:39.958Z,63.50
2018-01-26T19:21:07.414Z,63.40
2018-01-26T19:23:35.630Z,63.50
2018-01-26T19:26:03.086Z,63.50
2018-01-26T19:28:31.313Z,63.60
2018-01-26T19:30:58.764Z,63.50
2018-01-26T19:33:26.228Z,63.60
2018-01-26T19:35:53.671Z,63.60
2018-01-26T19:38:21.131Z,63.40
2018-01-26T19:40:48.576Z,63.60
2018-01-26T19:43:16.048Z,63.60
2018-01-26T19:45:43.501Z,63.60
2018-01-26T19:48:10.961Z,63.50
2018-01-26T19:50:38.413Z,63.40
2018-01-26T19:53:05.884Z,64.20
2018-01-26T19:55:33.341Z,63.60
2018-01-26T19:58:00.801Z,63.60
2018-01-26T20:00:28.254Z,63.50
2018-01-26T20:02:55.688Z,63.50
2018-01-26T20:05:40.653Z,63.50
2018-01-26T20:08:34.368Z,63.60
2018-01-26T20:11:01.821Z,63.60
2018-01-26T20:13:29.277Z,63.60
2018-01-26T20:16:00.085Z,63.50
2018-01-26T20:18:27.552Z,63.50
2018-01-26T20:20:54.998Z,63.40
2018-01-26T20:23:22.457Z,63.50
2018-01-26T20:25:49.917Z,63.50
2018-01-26T20:28:17.376Z,63.50
2018-01-26T20:30:44.825Z,63.60
2018-01-26T20:33:12.280Z,63.60
2018-01-26T20:38:14.402Z,63.40
2018-01-26T20:40:46.276Z,63.40
2018-01-26T20:43:13.717Z,63.40
2018-01-26T20:45:41.202Z,63.50
2018-01-26T20:48:09.424Z,63.60
2018-01-26T20:50:36.884Z,63.50
2018-01-26T20:53:04.324Z,63.70
2018-01-26T20:55:31.793Z,63.60
2018-01-26T20:57:59.326Z,63.50
2018-01-26T21:00:26.801Z,63.60
2018-01-26T21:02:55.007Z,63.50
2018-01-26T21:05:22.539Z,63.50
2018-01-26T21:07:49.997Z,63.60
2018-01-26T21:10:17.494Z,63.40
2018-01-26T21:12:44.956Z,63.40
2018-01-26T21:15:12.412Z,63.60
2018-01-26T21:17:39.873Z,63.50
2018-01-26T21:20:07.329Z,63.40
2018-01-26T21:22:34.785Z,63.30
2018-01-26T21:25:02.253Z,63.50
2018-01-26T21:27:29.702Z,63.50
2018-01-26T21:29:57.928Z,63.40
2018-01-26T21:32:25.375Z,63.40
2018-01-26T21:34:53.596Z,63.50
2018-01-26T21:37:21.052Z,63.50
2018-01-26T21:39:48.508Z,63.50
2018-01-26T21:42:15.957Z,63.50
2018-01-26T21:44:43.401Z,63.40
2018-01-26T21:47:10.863Z,63.80
2018-01-26T21:49:38.317Z,63.50
2018-01-26T21:52:05.820Z,63.50
2018-01-26T21:54:33.276Z,63.60
2018-01-26T21:57:01.492Z,63.30
2018-01-26T21:59:28.954Z,63.30
2018-01-26T22:01:56.413Z,63.30
2018-01-26T22:04:23.922Z,64.00
2018-01-26T22:06:57.074Z,63.40
2018-01-26T22:09:24.524Z,63.20
2018-01-26T22:11:51.999Z,63.40
2018-01-26T22:14:19.493Z,63.30
2018-01-26T22:16:47.716Z,63.30
2018-01-26T22:19:15.174Z,63.20
2018-01-26T22:21:42.638Z,63.20
2018-01-26T22:24:10.122Z,63.30
2018-01-26T22:26:38.366Z,63.40
2018-01-26T22:29:05.817Z,63.40
2018-01-26T22:31:33.284Z,63.30
2018-01-26T22:34:00.730Z,63.30
2018-01-26T22:36:28.189Z,63.30
2018-01-26T22:38:55.645Z,63.40
2018-01-26T22:41:23.103Z,63.30
2018-01-26T22:43:50.565Z,63.30
2018-01-26T22:46:18.019Z,63.30
2018-01-26T22:48:45.492Z,63.30
2018-01-26T22:51:12.973Z,63.30
2018-01-26T22:53:40.440Z,63.20
2018-01-26T22:56:07.881Z,63.40
2018-01-26T22:58:35.364Z,63.20
2018-01-26T23:01:03.589Z,63.20
2018-01-26T23:03:31.052Z,63.20
2018-01-26T23:05:58.510Z,63.10
2018-01-26T23:08:25.981Z,63.30
2018-01-26T23:10:53.433Z,63.30
2018-01-26T23:13:20.890Z,63.40
2018-01-26T23:15:48.348Z,63.30
2018-01-26T23:18:15.817Z,63.30
2018-01-26T23:20:43.273Z,63.40
2018-01-26T23:23:10.736Z,63.40
2018-01-26T23:25:38.176Z,63.30
2018-01-26T23:28:05.642Z,63.30
2018-01-26T23:30:33.097Z,63.20
2018-01-26T23:33:00.549Z,63.20
2018-01-26T23:35:27.996Z,63.20
2018-01-26T23:37:55.473Z,63.20
2018-01-26T23:40:24.690Z,63.30
2018-01-26T23:42:52.139Z,63.20
2018-01-26T23:45:19.595Z,63.20
2018-01-26T23:47:47.057Z,63.30
2018-01-26T23:50:14.509Z,63.20
2018-01-26T23:52:41.953Z,63.10
2018-01-26T23:55:09.413Z,63.10
2018-01-26T23:57:36.881Z,63.40
